Shaw Island, WA (98286)

12:42 PM PDT on April 18, 2015 (GMT -0700)
Lopez Island, WA | | Change Station
CLOSE
Current Station
Personal Weather Station
Location: Lopez Island, WA
Elevation: 148 ft
Nearby Weather Stations

Elev 148 ft 48.54 °N, 122.91 °W | Updated 15 seconds ago

Clear
Clear
59.0 °F
Feels Like 59.0 °F
N
0.0
Wind Variable Wind from WSW
Gusts 9.0 mph

Today
High -- | Low -- °F
--% Chance of Precip.
Yesterday
High -- | Low -- °F
Precip. -- in
6:15 AM 8:07 PM
New Moon, 0% visible
Pressure 30.39 in
Visibility 10.0 miles
Clouds Clear
Dew Point 53 °F
Humidity 79%
Rainfall 0.00 in
Snow Depth Not available.
UV 7 out of 12
Pollen 10.00 out of 12
Air Quality Not available.
Flu Activity Regional
METAR KFHR 181853Z AUTO 36007KT 300V030 10SM CLR 13/06 A3039 RMK AO2 SLP291 T01330061

More Conditions Fewer Conditions

Pressure 30.39 in
Visibility 10.0 miles
Clouds Clear
Dew Point 53 °F
Humidity 79%
Rainfall 0.00 in
Snow Depth Not available.
UV 7 out of 12
Pollen 10.00 out of 12
Air Quality Not available.
Flu Activity Regional
METAR KFHR 181853Z AUTO 36007KT 300V030 10SM CLR 13/06 A3039 RMK AO2 SLP291 T01330061

More Conditions Fewer Conditions

10-Day Weather Forecast

Almanac

Astronomy

Apr. 18, 2015 Rise Set
Actual Time
Civil Twilight
Nautical Twilight
Astronomical Twilight
Moon
Length of Visible Light
Length of Day
Tomorrow will be .
, % of the Moon is Illuminated

Today's Extremes

State Highs State Lows

Community

WunderPhotos

Upload Photos

1,814,504 photos uploaded!

WunderBlogs® & News

Nearby

Air Quality

  Air Quality AQ Index Pollutant
Not available.

Snow Depth

Station Depth Elevation

Earthquake Activity

City Distance Mag. Time & Date
Minimum magnitude displayed is 2.5.

Coastal Water Temperatures

Place Temperature

Stations

Nearby Weather Stations

Station Location Temp. Windchill Dew Point Humidity Wind Precip. Elev Updated Type